createdAt,value
2023-05-10T00:01:23.217Z,6.20
2023-05-10T00:03:50.655Z,6.53
2023-05-10T00:06:18.110Z,5.22
2023-05-10T00:08:46.213Z,5.45
2023-05-10T00:11:13.465Z,5.65
2023-05-10T00:13:42.378Z,5.30
2023-05-10T00:16:10.722Z,5.10
2023-05-10T00:18:39.762Z,5.80
2023-05-10T00:21:07.061Z,6.63
2023-05-10T00:23:34.463Z,4.93
2023-05-10T00:26:01.713Z,6.00
2023-05-10T00:28:29.031Z,5.38
2023-05-10T00:30:57.707Z,6.00
2023-05-10T00:33:24.924Z,5.72
2023-05-10T00:35:52.218Z,5.45
2023-05-10T00:38:19.485Z,5.68
2023-05-10T00:40:46.726Z,5.70
2023-05-10T00:43:15.002Z,5.65
2023-05-10T00:45:42.352Z,4.95
2023-05-10T00:48:11.056Z,5.82
2023-05-10T00:50:38.317Z,6.05
2023-05-10T00:53:05.661Z,5.90
2023-05-10T00:55:33.249Z,5.80
2023-05-10T00:58:00.794Z,5.88
2023-05-10T01:00:28.983Z,5.60
2023-05-10T01:02:56.320Z,5.82
2023-05-10T01:05:25.712Z,6.00
2023-05-10T01:07:53.021Z,5.70
2023-05-10T01:10:21.714Z,5.85
2023-05-10T01:12:49.241Z,6.25
2023-05-10T01:15:20.390Z,5.50
2023-05-10T01:17:49.144Z,6.10
2023-05-10T01:20:16.926Z,6.00
2023-05-10T01:25:45.279Z,6.80
2023-05-10T01:28:41.019Z,5.40
2023-05-10T01:31:23.518Z,6.05
2023-05-10T01:33:56.654Z,5.75
2023-05-10T01:36:31.874Z,5.55
2023-05-10T01:39:03.210Z,6.18
2023-05-10T01:41:40.842Z,6.70
2023-05-10T01:44:17.624Z,6.78
2023-05-10T01:46:49.798Z,6.47
2023-05-10T01:49:24.296Z,5.53
2023-05-10T01:51:54.489Z,7.15
2023-05-10T01:54:24.577Z,5.57
2023-05-10T01:57:02.550Z,5.78
2023-05-10T01:59:34.808Z,5.88
2023-05-10T02:02:03.488Z,5.80
2023-05-10T02:04:35.973Z,5.82
2023-05-10T02:07:03.486Z,5.95
2023-05-10T02:09:32.956Z,6.35
2023-05-10T02:12:02.432Z,6.35
2023-05-10T02:14:33.220Z,5.18
2023-05-10T02:17:02.109Z,6.43
2023-05-10T02:19:31.051Z,5.55
2023-05-10T02:22:01.016Z,5.40
2023-05-10T02:24:31.486Z,5.28
2023-05-10T02:27:00.222Z,5.05
2023-05-10T02:29:29.350Z,5.15
2023-05-10T02:31:58.523Z,5.50
2023-05-10T02:34:27.606Z,5.28
2023-05-10T02:36:55.785Z,5.45
2023-05-10T02:39:25.647Z,5.88
2023-05-10T02:41:54.458Z,5.65
2023-05-10T02:44:23.558Z,6.15
2023-05-10T02:46:50.872Z,4.90
2023-05-10T02:49:19.226Z,5.18
2023-05-10T02:51:52.376Z,5.90
2023-05-10T02:54:21.587Z,5.70
2023-05-10T02:56:57.254Z,5.05
2023-05-10T02:59:24.796Z,5.88
2023-05-10T03:01:52.188Z,5.30
2023-05-10T03:04:19.708Z,5.63
2023-05-10T03:06:47.198Z,5.93
2023-05-10T03:09:15.764Z,5.18
2023-05-10T03:11:55.000Z,5.53
2023-05-10T03:14:41.076Z,6.13
2023-05-10T03:17:12.758Z,5.63
2023-05-10T03:19:48.575Z,4.57
2023-05-10T03:22:22.696Z,4.80
2023-05-10T03:24:54.616Z,4.80
2023-05-10T03:27:24.488Z,4.60
2023-05-10T03:29:53.500Z,5.72
2023-05-10T03:32:20.714Z,4.78
2023-05-10T03:34:47.904Z,4.82
2023-05-10T03:37:15.169Z,4.47
2023-05-10T03:39:42.774Z,4.78
2023-05-10T03:42:10.094Z,5.07
2023-05-10T03:44:39.090Z,4.85
2023-05-10T03:47:06.565Z,4.82
2023-05-10T03:49:33.914Z,5.03
2023-05-10T03:52:01.107Z,5.60
2023-05-10T03:54:28.346Z,5.13
2023-05-10T03:56:55.580Z,4.63
2023-05-10T03:59:22.733Z,5.07
2023-05-10T04:01:51.432Z,4.65
2023-05-10T04:04:18.749Z,5.30
2023-05-10T04:06:46.015Z,4.85
2023-05-10T04:09:13.431Z,5.30
2023-05-10T04:11:40.694Z,5.10
2023-05-10T04:14:07.863Z,5.63
2023-05-10T04:16:35.155Z,4.47
2023-05-10T04:19:03.785Z,4.35
2023-05-10T04:21:31.004Z,5.25
2023-05-10T04:23:59.556Z,4.60
2023-05-10T04:26:26.804Z,5.00
2023-05-10T04:28:56.527Z,4.85
2023-05-10T04:31:23.843Z,5.40
2023-05-10T04:33:51.590Z,5.40
2023-05-10T04:36:20.423Z,3.90
2023-05-10T04:38:48.701Z,5.05
2023-05-10T04:41:15.990Z,4.32
2023-05-10T04:43:43.290Z,4.65
2023-05-10T04:46:10.552Z,3.95
2023-05-10T04:48:37.751Z,4.05
2023-05-10T04:51:05.107Z,4.75
2023-05-10T04:53:33.835Z,4.65
2023-05-10T04:56:01.079Z,4.03
2023-05-10T04:58:28.223Z,3.80
2023-05-10T05:00:55.378Z,5.55
2023-05-10T05:03:22.685Z,4.18
2023-05-10T05:05:49.974Z,3.88
2023-05-10T05:08:17.182Z,4.35
2023-05-10T05:10:45.954Z,4.05
2023-05-10T05:13:13.738Z,3.42
2023-05-10T05:15:40.977Z,3.83
2023-05-10T05:18:08.322Z,4.05
2023-05-10T05:20:35.934Z,4.68
2023-05-10T05:23:03.197Z,3.90
2023-05-10T05:25:30.496Z,4.40
2023-05-10T05:27:59.158Z,3.40
2023-05-10T05:30:27.480Z,4.03
2023-05-10T05:32:54.808Z,4.03
2023-05-10T05:35:22.038Z,3.88
2023-05-10T05:37:49.304Z,4.15
2023-05-10T05:40:17.992Z,4.20
2023-05-10T05:42:45.292Z,3.60
2023-05-10T05:45:14.058Z,3.97
2023-05-10T05:47:42.090Z,3.88
2023-05-10T05:50:10.833Z,3.33
2023-05-10T05:52:38.113Z,3.03
2023-05-10T05:55:05.896Z,3.97
2023-05-10T05:57:33.085Z,3.10
2023-05-10T06:00:00.292Z,4.00
2023-05-10T06:02:28.978Z,3.85
2023-05-10T06:04:56.183Z,3.45
2023-05-10T06:07:23.372Z,3.47
2023-05-10T06:09:50.889Z,3.75
2023-05-10T06:12:18.166Z,3.10
2023-05-10T06:14:45.624Z,3.65
2023-05-10T06:17:13.225Z,3.35
2023-05-10T06:19:41.840Z,3.15
2023-05-10T06:22:10.118Z,2.83
2023-05-10T06:24:37.693Z,3.55
2023-05-10T06:27:04.890Z,3.70
2023-05-10T06:29:33.652Z,2.65
2023-05-10T06:32:00.909Z,3.40
2023-05-10T06:34:28.141Z,2.72
2023-05-10T06:36:56.730Z,3.20
2023-05-10T06:39:25.246Z,2.83
2023-05-10T06:41:53.700Z,2.83
2023-05-10T06:44:20.958Z,3.42
2023-05-10T06:46:48.223Z,2.58
2023-05-10T06:49:15.570Z,2.63
2023-05-10T06:51:42.990Z,3.25
2023-05-10T06:54:11.584Z,2.63
2023-05-10T06:56:39.064Z,2.90
2023-05-10T06:59:06.371Z,3.10
2023-05-10T07:01:33.655Z,2.80
2023-05-10T07:04:00.935Z,2.65
2023-05-10T07:06:33.537Z,2.35
2023-05-10T07:09:01.436Z,3.33
2023-05-10T07:11:30.100Z,3.00
2023-05-10T07:13:57.332Z,2.97
2023-05-10T07:16:24.735Z,2.58
2023-05-10T07:18:51.983Z,2.55
2023-05-10T07:21:19.281Z,3.40
2023-05-10T07:23:46.700Z,2.75
2023-05-10T07:26:13.954Z,2.35
2023-05-10T07:28:43.049Z,2.97
2023-05-10T07:31:10.343Z,2.42
2023-05-10T07:33:37.616Z,2.40
2023-05-10T07:36:05.021Z,2.80
2023-05-10T07:38:32.901Z,2.95
2023-05-10T07:41:00.127Z,2.95
2023-05-10T07:43:27.300Z,2.47
2023-05-10T07:45:56.441Z,2.72
2023-05-10T07:48:23.694Z,3.13
2023-05-10T07:50:50.882Z,2.67
2023-05-10T07:53:18.273Z,2.33
2023-05-10T07:55:51.344Z,2.53
2023-05-10T07:58:18.688Z,2.42
2023-05-10T08:00:45.938Z,2.63
2023-05-10T08:03:14.957Z,2.90
2023-05-10T08:05:42.781Z,2.72
2023-05-10T08:10:36.887Z,2.20
2023-05-10T08:13:04.112Z,2.80
2023-05-10T08:15:31.335Z,3.03
2023-05-10T08:17:58.647Z,2.42
2023-05-10T08:20:27.477Z,2.60
2023-05-10T08:22:54.778Z,2.70
2023-05-10T08:25:22.022Z,2.33
2023-05-10T08:27:49.552Z,3.00
2023-05-10T08:30:16.796Z,2.38
2023-05-10T08:32:44.018Z,2.25
2023-05-10T08:35:11.494Z,2.47
2023-05-10T08:37:40.184Z,2.47
2023-05-10T08:40:09.527Z,2.80
2023-05-10T08:42:39.356Z,2.85
2023-05-10T08:45:08.689Z,3.28
2023-05-10T08:47:38.465Z,2.42
2023-05-10T08:50:07.979Z,2.50
2023-05-10T08:52:39.155Z,2.55
2023-05-10T08:55:08.459Z,2.47
2023-05-10T08:57:36.871Z,2.72
2023-05-10T09:00:05.132Z,2.13
2023-05-10T09:02:32.487Z,2.47
2023-05-10T09:05:00.022Z,2.40
2023-05-10T09:07:28.330Z,2.70
2023-05-10T09:09:55.776Z,2.83
2023-05-10T09:14:53.025Z,2.80
2023-05-10T09:17:20.542Z,2.65
2023-05-10T09:19:47.774Z,2.47
2023-05-10T09:22:15.055Z,4.40
2023-05-10T09:24:44.357Z,13.32
2023-05-10T09:27:11.588Z,2.53
2023-05-10T09:29:43.677Z,2.63
2023-05-10T09:32:13.810Z,2.45
2023-05-10T09:34:43.529Z,2.50
2023-05-10T09:37:10.840Z,2.78
2023-05-10T09:42:07.555Z,2.50
2023-05-10T09:44:38.089Z,2.53
2023-05-10T09:47:07.138Z,2.63
2023-05-10T09:49:35.183Z,2.67
2023-05-10T09:52:04.399Z,2.60
2023-05-10T09:54:32.434Z,2.60
2023-05-10T09:57:01.058Z,2.50
2023-05-10T09:59:29.393Z,2.80
2023-05-10T10:02:00.817Z,2.85
2023-05-10T10:04:29.683Z,2.65
2023-05-10T10:07:01.600Z,2.30
2023-05-10T10:09:30.200Z,2.65
2023-05-10T10:11:57.650Z,2.55
2023-05-10T10:14:25.399Z,2.33
2023-05-10T10:17:06.553Z,2.45
2023-05-10T10:19:37.278Z,2.40
2023-05-10T10:22:07.639Z,2.63
2023-05-10T10:24:35.002Z,2.47
2023-05-10T10:27:09.890Z,2.35
2023-05-10T10:29:45.383Z,3.15
2023-05-10T10:32:23.336Z,2.67
2023-05-10T10:34:52.725Z,2.75
2023-05-10T10:37:20.254Z,3.08
2023-05-10T10:39:49.436Z,2.72
2023-05-10T10:42:44.891Z,2.50
2023-05-10T10:45:13.442Z,2.33
2023-05-10T10:47:40.755Z,2.50
2023-05-10T10:52:39.345Z,2.35
2023-05-10T10:55:08.185Z,2.70
2023-05-10T10:57:46.899Z,2.53
2023-05-10T11:00:38.929Z,2.53
2023-05-10T11:03:08.326Z,2.30
2023-05-10T11:05:39.854Z,2.67
2023-05-10T11:08:13.107Z,2.53
2023-05-10T11:10:41.477Z,2.60
2023-05-10T11:13:10.072Z,2.80
2023-05-10T11:15:38.971Z,2.22
2023-05-10T11:18:19.347Z,2.50
2023-05-10T11:20:53.223Z,2.30
2023-05-10T11:23:20.443Z,2.65
2023-05-10T11:28:20.852Z,2.80
2023-05-10T11:30:50.577Z,2.63
2023-05-10T11:33:19.164Z,2.67
2023-05-10T11:35:48.138Z,2.15
2023-05-10T11:38:16.903Z,2.47
2023-05-10T11:40:44.487Z,2.78
2023-05-10T11:43:12.056Z,2.80
2023-05-10T11:45:42.154Z,2.40
2023-05-10T11:48:09.476Z,2.35
2023-05-10T11:53:03.651Z,2.58
2023-05-10T11:55:34.885Z,2.22
2023-05-10T11:58:02.680Z,2.35
2023-05-10T12:00:31.997Z,2.35
2023-05-10T12:02:59.583Z,2.08
2023-05-10T12:05:27.430Z,2.30
2023-05-10T12:08:11.865Z,2.08
2023-05-10T12:10:40.948Z,2.35
2023-05-10T12:13:13.453Z,2.20
2023-05-10T12:15:40.783Z,2.17
2023-05-10T12:20:36.619Z,2.40
2023-05-10T12:23:05.252Z,2.85
2023-05-10T12:25:33.590Z,2.22
2023-05-10T12:28:05.724Z,2.33
2023-05-10T12:30:34.920Z,2.05
2023-05-10T12:33:03.923Z,2.45
2023-05-10T12:35:32.084Z,2.28
2023-05-10T12:37:59.691Z,2.25
2023-05-10T12:40:26.882Z,2.20
2023-05-10T12:42:55.108Z,2.40
2023-05-10T12:47:50.873Z,1.85
2023-05-10T12:52:45.718Z,2.35
2023-05-10T12:55:14.619Z,2.63
2023-05-10T12:57:41.883Z,2.25
2023-05-10T13:00:10.128Z,2.13
2023-05-10T13:02:39.028Z,2.63
2023-05-10T13:05:07.323Z,1.92
2023-05-10T13:07:34.551Z,2.03
2023-05-10T13:10:01.997Z,2.28
2023-05-10T13:12:29.883Z,2.15
2023-05-10T13:14:57.220Z,2.20
2023-05-10T13:19:54.281Z,2.17
2023-05-10T13:22:32.571Z,2.38
2023-05-10T13:25:07.197Z,2.00
2023-05-10T13:27:34.443Z,2.10
2023-05-10T13:30:02.345Z,2.47
2023-05-10T13:32:30.057Z,2.28
2023-05-10T13:34:58.907Z,2.40
2023-05-10T13:37:26.189Z,1.92
2023-05-10T13:39:53.423Z,2.13
2023-05-10T13:42:23.356Z,2.47
2023-05-10T13:44:50.684Z,2.28
2023-05-10T13:49:45.385Z,2.03
2023-05-10T13:52:14.280Z,2.22
2023-05-10T13:54:41.963Z,2.38
2023-05-10T13:57:09.284Z,1.92
2023-05-10T13:59:38.566Z,2.80
2023-05-10T14:02:05.915Z,2.13
2023-05-10T14:04:33.516Z,2.33
2023-05-10T14:07:00.736Z,2.35
2023-05-10T14:09:30.346Z,2.10
2023-05-10T14:11:57.616Z,1.95
2023-05-10T14:14:25.097Z,2.22
2023-05-10T14:19:19.542Z,2.28
2023-05-10T14:24:13.826Z,2.30
2023-05-10T14:29:11.500Z,1.90
2023-05-10T14:31:39.750Z,2.20
2023-05-10T14:34:07.027Z,2.22
2023-05-10T14:36:34.213Z,2.38
2023-05-10T14:39:01.496Z,2.42
2023-05-10T14:41:28.920Z,2.55
2023-05-10T14:46:24.689Z,2.53
2023-05-10T14:51:18.952Z,1.85
2023-05-10T14:53:48.487Z,2.10
2023-05-10T14:56:16.054Z,2.20
2023-05-10T14:58:43.230Z,1.95
2023-05-10T15:01:12.040Z,2.13
2023-05-10T15:03:39.965Z,2.35
2023-05-10T15:06:09.393Z,2.28
2023-05-10T15:08:37.898Z,2.33
2023-05-10T15:11:05.293Z,2.33
2023-05-10T15:15:59.696Z,2.60
2023-05-10T15:18:28.529Z,2.30
2023-05-10T15:20:55.788Z,2.00
2023-05-10T15:23:23.295Z,2.42
2023-05-10T15:28:17.698Z,2.40
2023-05-10T15:33:11.834Z,2.60
2023-05-10T15:35:40.645Z,2.83
2023-05-10T15:38:07.882Z,2.35
2023-05-10T15:40:36.276Z,2.60
2023-05-10T15:43:03.471Z,2.70
2023-05-10T15:45:31.208Z,3.00
2023-05-10T15:47:59.601Z,2.97
2023-05-10T15:50:27.150Z,2.40
2023-05-10T15:52:56.931Z,2.53
2023-05-10T15:55:24.158Z,2.47
2023-05-10T15:57:52.543Z,2.63
2023-05-10T16:00:20.906Z,2.65
2023-05-10T16:02:48.312Z,2.47
2023-05-10T16:07:43.138Z,2.90
2023-05-10T16:10:12.620Z,2.28
2023-05-10T16:12:40.389Z,2.35
2023-05-10T16:15:09.550Z,2.53
2023-05-10T16:17:37.390Z,2.53
2023-05-10T16:20:06.961Z,2.50
2023-05-10T16:22:35.738Z,2.53
2023-05-10T16:25:03.044Z,2.60
2023-05-10T16:29:53.377Z,2.83
2023-05-10T16:32:20.607Z,2.60
2023-05-10T16:34:47.981Z,2.40
2023-05-10T16:37:15.209Z,2.33
2023-05-10T16:39:42.687Z,2.90
2023-05-10T16:42:09.926Z,3.20
2023-05-10T16:44:37.395Z,4.13
2023-05-10T16:47:06.486Z,4.75
2023-05-10T16:49:35.205Z,5.18
2023-05-10T16:52:02.447Z,5.20
2023-05-10T16:54:30.109Z,4.93
2023-05-10T16:56:57.372Z,5.38
2023-05-10T16:59:25.925Z,5.35
2023-05-10T17:01:53.444Z,5.53
2023-05-10T17:06:49.237Z,5.18
2023-05-10T17:09:16.440Z,7.18
2023-05-10T17:11:43.641Z,5.15
2023-05-10T17:14:11.971Z,5.22
2023-05-10T17:16:39.329Z,5.55
2023-05-10T17:19:06.634Z,6.53
2023-05-10T17:21:35.331Z,5.75
2023-05-10T17:24:02.825Z,6.05
2023-05-10T17:26:30.167Z,5.53
2023-05-10T17:28:57.799Z,5.97
2023-05-10T17:31:25.078Z,5.75
2023-05-10T17:33:52.430Z,5.63
2023-05-10T17:36:19.666Z,6.68
2023-05-10T17:38:48.238Z,5.88
2023-05-10T17:41:15.442Z,5.07
2023-05-10T17:43:42.767Z,5.80
2023-05-10T17:46:10.388Z,6.25
2023-05-10T17:48:37.637Z,8.30
2023-05-10T17:51:05.100Z,8.68
2023-05-10T17:53:32.408Z,7.78
2023-05-10T17:56:01.082Z,6.78
2023-05-10T17:58:28.453Z,5.50
2023-05-10T18:00:56.138Z,7.07
2023-05-10T18:05:51.292Z,5.38
2023-05-10T18:08:18.800Z,5.50
2023-05-10T18:10:46.004Z,5.53
2023-05-10T18:13:14.646Z,5.80
2023-05-10T18:15:41.838Z,5.70
2023-05-10T18:18:09.130Z,5.03
2023-05-10T18:20:36.583Z,5.15
2023-05-10T18:23:03.757Z,4.63
2023-05-10T18:25:31.366Z,4.95
2023-05-10T18:28:01.978Z,5.68
2023-05-10T18:30:31.671Z,6.45
2023-05-10T18:32:58.994Z,5.43
2023-05-10T18:35:27.565Z,5.43
2023-05-10T18:37:54.829Z,4.82
2023-05-10T18:40:22.087Z,4.63
2023-05-10T18:42:49.302Z,6.93
2023-05-10T18:45:16.847Z,6.68
2023-05-10T18:50:12.909Z,6.70
2023-05-10T18:52:40.130Z,7.15
2023-05-10T18:55:08.251Z,7.72
2023-05-10T18:57:35.500Z,7.85
2023-05-10T19:00:02.781Z,7.95
2023-05-10T19:02:30.368Z,7.93
2023-05-10T19:04:59.093Z,7.40
2023-05-10T19:07:26.298Z,7.88
2023-05-10T19:09:53.649Z,8.35
2023-05-10T19:12:21.195Z,9.07
2023-05-10T19:14:48.436Z,8.43
2023-05-10T19:17:15.993Z,8.48
2023-05-10T19:19:43.560Z,9.48
2023-05-10T19:22:12.627Z,9.73
2023-05-10T19:24:39.854Z,13.25
2023-05-10T19:27:07.167Z,12.73
2023-05-10T19:29:34.540Z,12.35
2023-05-10T19:32:01.869Z,11.27
2023-05-10T19:34:29.190Z,10.40
2023-05-10T19:36:58.670Z,9.65
2023-05-10T19:39:28.120Z,9.95
2023-05-10T19:41:55.889Z,8.80
2023-05-10T19:44:24.650Z,9.52
2023-05-10T19:46:52.877Z,7.68
2023-05-10T19:49:20.614Z,7.50
2023-05-10T19:51:48.134Z,8.57
2023-05-10T19:54:15.364Z,9.00
2023-05-10T19:56:43.986Z,9.57
2023-05-10T19:59:11.260Z,10.25
2023-05-10T20:01:38.580Z,9.50
2023-05-10T20:04:07.398Z,9.75
2023-05-10T20:06:34.650Z,9.38
2023-05-10T20:09:01.839Z,9.27
2023-05-10T20:11:29.104Z,9.40
2023-05-10T20:13:57.729Z,9.57
2023-05-10T20:16:26.771Z,8.73
2023-05-10T20:18:54.502Z,10.13
2023-05-10T20:21:21.889Z,9.27
2023-05-10T20:23:49.650Z,9.82
2023-05-10T20:26:16.857Z,9.32
2023-05-10T20:28:44.087Z,8.73
2023-05-10T20:31:12.970Z,8.77
2023-05-10T20:33:40.210Z,8.57
2023-05-10T20:36:07.530Z,9.05
2023-05-10T20:38:34.807Z,9.45
2023-05-10T20:41:02.083Z,9.77
2023-05-10T20:43:29.575Z,9.00
2023-05-10T20:45:56.834Z,9.48
2023-05-10T20:48:25.485Z,9.82
2023-05-10T20:50:52.726Z,10.43
2023-05-10T20:53:20.017Z,8.77
2023-05-10T20:55:47.241Z,9.38
2023-05-10T20:58:14.680Z,9.82
2023-05-10T21:00:42.189Z,9.52
2023-05-10T21:03:09.438Z,9.93
2023-05-10T21:05:38.066Z,10.27
2023-05-10T21:08:06.465Z,10.00
2023-05-10T21:10:33.713Z,11.07
2023-05-10T21:13:00.929Z,9.90
2023-05-10T21:15:28.138Z,11.57
2023-05-10T21:17:55.444Z,10.70
2023-05-10T21:20:22.723Z,11.05
2023-05-10T21:22:51.317Z,11.15
2023-05-10T21:25:18.940Z,10.07
2023-05-10T21:27:46.145Z,9.75
2023-05-10T21:30:13.663Z,10.90
2023-05-10T21:32:41.237Z,11.27
2023-05-10T21:35:09.141Z,10.52
2023-05-10T21:40:05.747Z,10.40
2023-05-10T21:42:32.972Z,11.05
2023-05-10T21:45:00.189Z,11.52
2023-05-10T21:47:27.747Z,10.52
2023-05-10T21:49:55.263Z,11.23
2023-05-10T21:52:22.741Z,10.65
2023-05-10T21:54:50.018Z,10.18
2023-05-10T21:57:18.655Z,11.00
2023-05-10T21:59:45.846Z,10.13
2023-05-10T22:02:14.097Z,9.93
2023-05-10T22:04:41.616Z,10.32
2023-05-10T22:07:09.427Z,10.13
2023-05-10T22:09:36.670Z,10.90
2023-05-10T22:12:04.227Z,11.18
2023-05-10T22:14:34.071Z,11.80
2023-05-10T22:17:01.433Z,11.02
2023-05-10T22:19:28.714Z,10.60
2023-05-10T22:21:55.922Z,9.90
2023-05-10T22:24:23.475Z,11.20
2023-05-10T22:26:53.369Z,12.02
2023-05-10T22:29:21.993Z,11.80
2023-05-10T22:31:54.192Z,11.55
2023-05-10T22:34:21.740Z,11.40
2023-05-10T22:36:48.954Z,11.48
2023-05-10T22:39:16.862Z,12.38
2023-05-10T22:41:44.057Z,11.95
2023-05-10T22:44:12.407Z,11.75
2023-05-10T22:46:39.730Z,11.70
2023-05-10T22:49:09.591Z,11.30
2023-05-10T22:51:36.992Z,12.00
2023-05-10T22:54:04.347Z,11.40
2023-05-10T22:56:32.942Z,11.50
2023-05-10T22:59:00.267Z,11.25
2023-05-10T23:01:27.582Z,11.05
2023-05-10T23:03:55.855Z,12.70
2023-05-10T23:06:24.480Z,12.20
2023-05-10T23:08:51.797Z,12.30
2023-05-10T23:11:21.560Z,12.50
2023-05-10T23:13:48.784Z,11.98
2023-05-10T23:16:16.357Z,11.38
2023-05-10T23:18:43.671Z,12.45
2023-05-10T23:21:11.223Z,12.35
2023-05-10T23:23:40.370Z,12.05
2023-05-10T23:26:07.622Z,13.38
2023-05-10T23:28:34.925Z,12.73
2023-05-10T23:31:02.180Z,13.27
2023-05-10T23:33:29.614Z,12.52
2023-05-10T23:35:56.849Z,12.65
2023-05-10T23:38:24.126Z,13.35
2023-05-10T23:40:52.696Z,13.52
2023-05-10T23:43:19.871Z,12.10
2023-05-10T23:45:53.022Z,13.00
2023-05-10T23:48:20.654Z,11.43
2023-05-10T23:50:50.549Z,11.55
2023-05-10T23:53:17.844Z,10.65
2023-05-10T23:55:45.510Z,11.25
2023-05-10T23:58:15.465Z,11.70
